Time;durP1;ratioP1;P1;durP2;ratioP2;P2;SDS_P1;SDS_P2;PMS_P1;PMS_P2;Temp;Humidity;BMP_temperature;BMP_pressure;BME280_temperature;BME280_humidity;BME280_pressure;Samples;Min_cycle;Max_cycle;Signal;HPM_P1;HPM_P2
2021/12/02 00:00:51;;;;;;;1.95;1.85;;;;;;;-5.16;73.00;98116.56;6231586;23;20085;-76
2021/12/02 00:03:18;;;;;;;1.70;1.67;;;;;;;-5.22;74.16;98126.84;6229832;23;20100;-76
2021/12/02 00:05:44;;;;;;;1.80;1.70;;;;;;;-5.17;73.45;98121.69;6229419;23;20021;-77
2021/12/02 00:08:10;;;;;;;6.45;2.35;;;;;;;-5.22;73.84;98142.13;6227162;23;20031;-76
2021/12/02 00:10:37;;;;;;;2.10;2.00;;;;;;;-5.19;74.21;98141.22;6224705;23;20016;-77
2021/12/02 00:13:03;;;;;;;2.10;2.00;;;;;;;-5.17;73.49;98147.13;6218473;23;20542;-77
2021/12/02 00:15:35;;;;;;;2.20;2.10;;;;;;;-5.15;74.31;98147.91;6186024;23;20035;-77
2021/12/02 00:23:28;;;;;;;2.45;2.03;;;;;;;-5.23;74.19;98147.25;6188223;23;20021;-76
2021/12/02 00:25:58;;;;;;;2.95;2.75;;;;;;;-5.16;74.24;98164.88;6210428;23;20483;-77
2021/12/02 00:28:28;;;;;;;2.28;2.17;;;;;;;-5.17;75.18;98170.00;6209597;23;20070;-76
2021/12/02 00:30:58;;;;;;;2.50;2.30;;;;;;;-5.13;74.48;98176.69;6208839;23;20016;-77
2021/12/02 00:33:25;;;;;;;2.70;2.50;;;;;;;-5.15;74.66;98179.28;6208857;23;20029;-77
2021/12/02 00:35:52;;;;;;;2.95;2.20;;;;;;;-5.14;75.44;98187.75;6183558;23;20016;-77
2021/12/02 00:38:19;;;;;;;3.05;2.78;;;;;;;-5.18;75.93;98183.56;6208423;23;20032;-78
2021/12/02 00:40:45;;;;;;;2.97;2.78;;;;;;;-5.19;76.78;98192.06;6209912;23;20451;-77
2021/12/02 00:43:12;;;;;;;3.30;2.85;;;;;;;-5.17;75.94;98201.38;6208477;23;20026;-78
2021/12/02 00:45:40;;;;;;;2.67;2.47;;;;;;;-5.17;76.29;98201.38;6208082;23;20016;-78
2021/12/02 00:48:07;;;;;;;2.97;2.78;;;;;;;-5.20;76.63;98203.13;6208384;23;20017;-77
2021/12/02 00:50:34;;;;;;;2.90;2.22;;;;;;;-5.26;77.58;98201.50;6207867;23;20329;-78
2021/12/02 00:53:00;;;;;;;2.28;2.17;;;;;;;-5.23;77.72;98210.81;6209840;23;20017;-79
2021/12/02 00:55:26;;;;;;;4.53;3.05;;;;;;;-5.21;77.98;98214.16;6183290;23;20016;-78
2021/12/02 00:57:53;;;;;;;2.28;2.17;;;;;;;-5.26;78.49;98217.59;6249245;22;20019;-78
2021/12/02 01:00:19;;;;;;;2.60;2.15;;;;;;;-5.27;77.88;98221.00;6218246;22;20098;-78
2021/12/02 01:02:45;;;;;;;2.35;2.20;;;;;;;-5.22;77.99;98230.25;6243393;22;20023;-77
2021/12/02 01:05:11;;;;;;;2.60;2.40;;;;;;;-5.21;78.05;98224.31;6218269;22;20645;-76
2021/12/02 01:07:38;;;;;;;2.60;1.98;;;;;;;-5.22;78.57;98237.88;6243413;22;20031;-78
2021/12/02 01:10:04;;;;;;;2.58;2.38;;;;;;;-5.23;79.20;98241.31;6242932;22;20024;-77
2021/12/02 01:12:30;;;;;;;2.63;2.35;;;;;;;-5.23;79.17;98238.78;6270485;22;20762;-76
2021/12/02 01:14:56;;;;;;;2.10;2.00;;;;;;;-5.24;79.20;98237.94;6270100;22;20087;-77
2021/12/02 01:17:22;;;;;;;3.00;2.80;;;;;;;-5.24;79.44;98249.81;6270457;22;20059;-77
2021/12/02 01:19:48;;;;;;;2.20;2.10;;;;;;;-5.29;79.48;98247.31;6269882;22;20027;-77
2021/12/02 01:22:15;;;;;;;2.20;2.00;;;;;;;-5.30;79.81;98256.66;6243219;22;20019;-76
2021/12/02 01:24:42;;;;;;;2.22;2.13;;;;;;;-5.30;79.65;98256.66;6243001;22;20459;-76
2021/12/02 01:27:09;;;;;;;2.45;2.35;;;;;;;-5.24;80.41;98262.50;6192931;22;20107;-77
2021/12/02 01:29:35;;;;;;;2.40;2.30;;;;;;;-5.27;80.72;98265.97;6243713;22;20023;-77
2021/12/02 01:32:05;;;;;;;2.13;2.03;;;;;;;-5.24;79.75;98265.91;6244065;22;20018;-77
2021/12/02 01:34:31;;;;;;;2.95;2.75;;;;;;;-5.24;79.35;98262.50;6243441;22;20151;-77
2021/12/02 01:36:57;;;;;;;2.45;2.33;;;;;;;-5.24;79.13;98249.81;6269842;22;20069;-78
2021/12/02 01:39:24;;;;;;;2.35;1.95;;;;;;;-5.16;79.24;98273.38;6243386;22;20016;-78
2021/12/02 01:41:54;;;;;;;2.55;2.45;;;;;;;-5.17;79.10;98272.56;6242415;22;20016;-77
2021/12/02 01:44:21;;;;;;;2.60;2.50;;;;;;;-5.15;79.10;98269.97;6244255;22;20011;-77
2021/12/02 01:46:58;;;;;;;2.50;2.28;;;;;;;-5.08;77.45;98281.72;6243145;22;20072;-78
2021/12/02 01:49:30;;;;;;;2.53;2.25;;;;;;;-5.05;77.66;98281.66;6244197;22;20467;-78
2021/12/02 01:51:56;;;;;;;2.33;2.10;;;;;;;-5.04;78.11;98283.34;6242688;22;20024;-77
2021/12/02 01:54:26;;;;;;;1.80;1.70;;;;;;;-5.05;77.88;98290.13;6243448;22;20020;-78
2021/12/02 01:57:09;;;;;;;1.50;1.50;;;;;;;-5.05;77.94;98274.03;6269518;22;20073;-78
2021/12/02 01:59:37;;;;;;;1.50;1.48;;;;;;;-5.04;78.31;98293.53;6217677;22;20023;-78
2021/12/02 02:02:10;;;;;;;2.38;2.25;;;;;;;-5.11;79.07;98291.94;6218911;22;20015;-78
2021/12/02 02:04:36;;;;;;;1.98;1.88;;;;;;;-5.29;82.99;98303.25;6246325;22;20435;-78
2021/12/02 02:07:13;;;;;;;2.03;1.92;;;;;;;-5.31;81.94;98295.69;6272158;22;20097;-77
2021/12/02 02:09:39;;;;;;;3.10;2.53;;;;;;;-5.16;79.10;98296.25;6219524;22;20062;-77
2021/12/02 02:12:07;;;;;;;2.60;2.50;;;;;;;-5.19;78.58;98293.78;6271971;22;20020;-77
2021/12/02 02:14:34;;;;;;;2.67;2.47;;;;;;;-5.12;78.95;98306.34;6219974;22;20404;-78
2021/12/02 02:17:05;;;;;;;1.95;1.85;;;;;;;-5.21;80.44;98296.34;6244988;22;20073;-79
2021/12/02 02:19:32;;;;;;;;;;;;;;;-5.19;79.33;98307.31;6275471;22;20038;-78
2021/12/02 02:21:58;;;;;;;1.95;1.63;;;;;;;-5.16;78.47;98303.88;6275308;22;19915;-79
2021/12/02 02:24:25;;;;;;;2.38;1.98;;;;;;;-5.13;78.37;98307.22;6245547;22;20036;-78
2021/12/02 02:26:51;;;;;;;1.95;1.90;;;;;;;-5.24;78.91;98280.31;6245626;22;20023;-77
2021/12/02 02:29:18;;;;;;;1.95;1.88;;;;;;;-5.13;75.98;98288.56;6245272;22;20435;-77
2021/12/02 02:31:45;;;;;;;2.35;2.25;;;;;;;-5.13;76.26;98303.81;6272364;22;20362;-77
2021/12/02 02:34:11;;;;;;;1.90;1.80;;;;;;;-5.08;75.82;98289.34;6220231;22;20868;-78
2021/12/02 02:36:40;;;;;;;1.95;1.50;;;;;;;-5.07;75.33;98301.22;6245059;22;20024;-76
2021/12/02 02:39:07;;;;;;;1.75;1.63;;;;;;;-5.10;74.56;98306.31;6244719;22;20041;-77
2021/12/02 02:41:36;;;;;;;1.40;1.30;;;;;;;-5.06;76.84;98325.75;6219847;22;20098;-77
2021/12/02 02:44:02;;;;;;;1.65;1.55;;;;;;;-5.29;79.98;98319.34;6244536;22;20091;-76
2021/12/02 02:46:34;;;;;;;1.52;1.42;;;;;;;-5.31;78.70;98321.09;6244668;22;20019;-77
2021/12/02 02:49:12;;;;;;;1.60;1.60;;;;;;;-5.26;76.75;98316.75;6244594;22;20019;-77
2021/12/02 02:51:39;;;;;;;1.30;1.30;;;;;;;-5.16;74.40;98314.06;6272268;22;20012;-76
2021/12/02 02:54:07;;;;;;;1.40;1.40;;;;;;;-5.14;74.19;98323.34;6244860;22;20127;-76
2021/12/02 02:56:37;;;;;;;1.45;1.42;;;;;;;-5.12;74.98;98331.78;6271388;22;20020;-76
2021/12/02 02:59:22;;;;;;;1.67;1.58;;;;;;;-5.13;74.63;98321.63;6219916;22;20351;-77
2021/12/02 03:02:04;;;;;;;1.20;1.20;;;;;;;-5.11;74.57;98330.09;6245105;22;20015;-76
2021/12/02 03:04:36;;;;;;;1.20;1.20;;;;;;;-5.09;74.68;98328.34;6271783;22;20510;-75
2021/12/02 03:12:07;;;;;;;1.40;1.40;;;;;;;-5.06;73.26;98341.84;6219179;22;20085;-77
2021/12/02 03:14:53;;;;;;;1.30;1.30;;;;;;;-5.09;73.46;98331.75;6246201;22;20098;-76
2021/12/02 03:17:19;;;;;;;1.17;1.17;;;;;;;-5.06;73.16;98341.00;6271847;22;20019;-78
2021/12/02 03:19:46;;;;;;;1.73;1.70;;;;;;;-5.04;73.37;98339.31;6271759;22;20023;-77
2021/12/02 03:22:13;;;;;;;1.20;1.20;;;;;;;-5.04;73.50;98344.38;6244415;22;20016;-77
2021/12/02 03:24:39;;;;;;;1.50;1.50;;;;;;;-5.06;73.87;98351.19;6244210;22;20042;-76
2021/12/02 03:27:05;;;;;;;1.77;1.70;;;;;;;-5.06;73.70;98344.41;6193985;22;20051;-76
2021/12/02 03:29:31;;;;;;;1.65;1.60;;;;;;;-5.06;73.75;98354.56;6219513;22;20015;-76
2021/12/02 03:31:58;;;;;;;1.52;1.52;;;;;;;-5.07;74.61;98359.69;6271833;22;20045;-77
2021/12/02 03:34:24;;;;;;;1.50;1.50;;;;;;;-5.06;74.09;98334.22;6271701;22;20027;-78
2021/12/02 03:36:50;;;;;;;1.65;1.63;;;;;;;-5.05;73.08;98347.78;6244608;22;20020;-77
2021/12/02 03:39:16;;;;;;;1.90;1.80;;;;;;;-5.02;73.68;98368.06;6271688;22;20186;-77
2021/12/02 03:41:43;;;;;;;1.73;1.63;;;;;;;-5.02;73.44;98368.06;6244016;22;20021;-78
2021/12/02 03:44:09;;;;;;;1.30;1.30;;;;;;;-5.03;73.62;98366.38;6271039;22;20517;-77
2021/12/02 03:46:36;;;;;;;1.50;1.50;;;;;;;-4.99;74.28;98373.09;6270126;22;20046;-78
2021/12/02 03:49:02;;;;;;;1.50;1.50;;;;;;;-4.99;73.42;98373.09;6245542;22;20015;-80
2021/12/02 03:51:28;;;;;;;1.00;1.00;;;;;;;-5.01;73.74;98369.75;6221489;22;20282;-81
2021/12/02 03:53:55;;;;;;;1.83;1.73;;;;;;;-4.99;73.25;98365.47;6274083;22;20061;-82
2021/12/02 03:56:21;;;;;;;1.25;1.25;;;;;;;-4.99;73.40;98368.88;6247213;22;20049;-80
2021/12/02 03:58:48;;;;;;;1.70;1.67;;;;;;;-4.99;73.95;98388.38;6223206;22;20511;-81
2021/12/02 04:01:14;;;;;;;2.72;1.48;;;;;;;-5.00;74.66;98386.69;6248084;22;20020;-81
2021/12/02 04:03:41;;;;;;;1.58;1.55;;;;;;;-4.96;73.46;98393.41;6276648;22;20081;-81
2021/12/02 04:06:07;;;;;;;1.50;1.50;;;;;;;-4.99;73.87;98385.81;6247590;22;20023;-81
2021/12/02 04:08:42;;;;;;;1.38;1.38;;;;;;;-4.98;73.53;98387.53;6279394;22;20016;-83
2021/12/02 04:13:43;;;;;;;1.45;1.35;;;;;;;-5.00;73.78;98396.84;6245744;22;20016;-80
2021/12/02 04:16:15;;;;;;;1.95;1.85;;;;;;;-5.02;73.64;98399.44;6276821;22;20348;-81
2021/12/02 04:18:41;;;;;;;1.60;1.60;;;;;;;-5.05;74.58;98398.66;6278397;22;20026;-81
2021/12/02 04:21:07;;;;;;;1.45;1.45;;;;;;;-5.08;74.64;98403.78;6272781;22;20015;-79
2021/12/02 04:23:33;;;;;;;1.83;1.83;;;;;;;-5.05;74.93;98406.28;6245395;22;20065;-80
2021/12/02 04:25:59;;;;;;;2.00;1.80;;;;;;;-5.06;74.88;98412.22;6244972;22;20035;-80
2021/12/02 04:28:25;;;;;;;1.88;1.77;;;;;;;-5.13;75.55;98410.63;6246194;22;20055;-79
2021/12/02 04:30:51;;;;;;;1.35;1.35;;;;;;;-5.14;75.98;98411.53;6243962;22;20030;-81
2021/12/02 04:33:17;;;;;;;1.40;1.40;;;;;;;-5.15;75.99;98414.91;6270266;22;20057;-80
2021/12/02 04:35:43;;;;;;;1.92;1.83;;;;;;;-5.20;76.27;98416.72;6270046;22;20019;-80
2021/12/02 04:38:09;;;;;;;1.90;1.80;;;;;;;-5.19;76.41;98420.91;6267148;22;20026;-82
2021/12/02 04:40:36;;;;;;;1.83;1.73;;;;;;;-5.23;76.88;98416.75;6242515;22;20026;-79
2021/12/02 04:43:03;;;;;;;1.48;1.48;;;;;;;-5.17;77.67;98425.13;6242014;22;20050;-80
2021/12/02 04:45:29;;;;;;;2.33;2.22;;;;;;;-5.22;77.47;98433.66;6270754;22;20367;-79
2021/12/02 04:47:55;;;;;;;2.20;2.00;;;;;;;-5.24;78.42;98433.72;6245172;22;20020;-81
2021/12/02 04:50:21;;;;;;;2.53;2.42;;;;;;;-5.30;78.55;98429.53;6272028;22;20098;-80
2021/12/02 04:52:49;;;;;;;2.30;2.20;;;;;;;-5.33;78.93;98429.59;6246278;22;20466;-79
2021/12/02 04:55:15;;;;;;;1.58;1.58;;;;;;;-5.34;78.50;98433.00;6246740;22;20547;-81
2021/12/02 04:57:41;;;;;;;3.80;2.72;;;;;;;-5.34;78.94;98432.16;6246322;22;20367;-80
2021/12/02 05:00:08;;;;;;;2.70;2.47;;;;;;;-5.34;78.88;98433.00;6272780;22;20023;-80
2021/12/02 05:02:34;;;;;;;2.35;2.25;;;;;;;-5.41;79.19;98446.66;6246057;22;20046;-81
2021/12/02 05:05:00;;;;;;;1.80;1.80;;;;;;;-5.46;79.13;98439.94;6245946;22;20022;-80
2021/12/02 05:07:26;;;;;;;1.20;1.20;;;;;;;-5.47;79.42;98456.91;6221309;22;20019;-78
2021/12/02 05:09:52;;;;;;;3.90;3.03;;;;;;;-5.56;78.93;98457.03;6273349;22;20102;-81
2021/12/02 05:12:19;;;;;;;1.15;1.15;;;;;;;-5.57;78.91;98460.44;6273114;22;20034;-81
2021/12/02 05:14:45;;;;;;;2.50;2.40;;;;;;;-5.66;79.12;98459.72;6272492;22;20016;-81
2021/12/02 05:17:11;;;;;;;1.88;1.77;;;;;;;-5.72;79.33;98454.69;6271617;22;20027;-80
2021/12/02 05:19:37;;;;;;;1.92;1.83;;;;;;;-5.76;79.31;98459.00;6272431;22;20030;-80
2021/12/02 05:22:03;;;;;;;3.15;2.95;;;;;;;-5.86;79.31;98458.28;6271839;22;20455;-79
2021/12/02 05:24:29;;;;;;;3.15;2.95;;;;;;;-5.89;80.00;98470.22;6244590;22;20043;-80
2021/12/02 05:26:55;;;;;;;3.58;3.10;;;;;;;-5.97;79.32;98455.06;6271484;22;20019;-80
2021/12/02 05:29:21;;;;;;;2.45;2.35;;;;;;;-5.96;79.64;98453.34;6273428;22;20431;-80
2021/12/02 05:31:47;;;;;;;2.95;2.50;;;;;;;-5.89;79.27;98473.56;6248656;22;20065;-79
2021/12/02 05:34:13;;;;;;;3.58;3.38;;;;;;;-5.92;79.23;98468.53;6243692;22;20023;-80
2021/12/02 05:36:39;;;;;;;3.78;3.05;;;;;;;-5.87;78.74;98471.88;6244238;22;20019;-79
2021/12/02 05:39:05;;;;;;;3.35;3.05;;;;;;;-5.87;79.58;98476.09;6271182;22;20017;-80
2021/12/02 05:41:32;;;;;;;3.60;3.30;;;;;;;-5.91;79.29;98476.97;6244739;22;20053;-80
2021/12/02 05:43:59;;;;;;;3.65;3.38;;;;;;;-5.89;79.86;98482.91;6245340;22;20027;-80
2021/12/02 05:46:25;;;;;;;5.13;3.38;;;;;;;-5.90;79.74;98486.28;6271197;22;20451;-79
2021/12/02 05:48:51;;;;;;;4.28;3.20;;;;;;;-5.90;79.02;98491.38;6244418;22;20102;-79
2021/12/02 05:51:23;;;;;;;3.10;2.70;;;;;;;-5.95;79.48;98491.41;6272284;22;20055;-81
2021/12/02 05:54:01;;;;;;;5.00;4.03;;;;;;;-5.26;76.85;98486.25;6227227;22;20436;-82
2021/12/02 11:26:47;;;;;;;4.95;3.83;;;;;;;-3.04;68.87;98443.00;6301209;22;20033;-79
2021/12/02 11:29:13;;;;;;;4.45;3.95;;;;;;;-2.98;68.67;98432.69;6274104;22;20106;-79
2021/12/02 11:31:43;;;;;;;7.63;3.47;;;;;;;-3.02;68.98;98433.63;6252216;22;20041;-80
2021/12/02 11:34:10;;;;;;;3.85;3.55;;;;;;;-3.04;68.36;98424.31;6249111;22;20458;-81
2021/12/02 11:36:45;;;;;;;4.88;4.47;;;;;;;-2.95;69.73;98431.75;6300134;22;20015;-80
2021/12/02 11:39:11;;;;;;;7.30;6.53;;;;;;;-2.94;68.94;98420.66;6299939;22;20080;-79
2021/12/02 11:41:37;;;;;;;5.25;4.55;;;;;;;-3.00;68.23;98415.69;6272740;22;20462;-80
2021/12/02 11:44:04;;;;;;;3.17;2.67;;;;;;;-3.00;69.18;98408.03;6248176;22;20019;-80
2021/12/02 11:46:30;;;;;;;1.98;1.88;;;;;;;-3.02;69.25;98394.50;6247604;22;20023;-80
2021/12/02 11:48:57;;;;;;;2.30;2.20;;;;;;;-3.02;69.51;98395.34;6301068;22;20114;-79
2021/12/02 11:51:23;;;;;;;2.65;2.47;;;;;;;-3.08;69.64;98390.38;6300419;22;20015;-80
2021/12/02 11:53:49;;;;;;;3.65;3.35;;;;;;;-3.10;69.82;98381.91;6247967;22;20023;-79
2021/12/02 11:56:20;;;;;;;2.92;2.72;;;;;;;-3.16;69.89;98367.59;6298955;22;20454;-80
2021/12/02 11:58:46;;;;;;;4.05;3.75;;;;;;;-3.07;70.03;98366.53;6249243;22;20085;-78
2021/12/02 12:01:16;;;;;;;3.92;3.05;;;;;;;-3.02;69.28;98368.97;6301364;22;20577;-80
2021/12/02 12:03:54;;;;;;;3.20;2.90;;;;;;;-3.01;69.12;98368.94;6248027;22;20098;-80
2021/12/02 12:06:32;;;;;;;3.13;2.92;;;;;;;-3.00;69.47;98351.91;6223360;22;20070;-81
2021/12/02 12:08:59;;;;;;;3.08;2.88;;;;;;;-3.07;68.25;98335.91;6225337;22;20023;-81
2021/12/02 12:11:33;;;;;;;4.32;3.92;;;;;;;-3.04;69.14;98365.63;6250805;22;20019;-81
2021/12/02 12:14:10;;;;;;;3.88;3.28;;;;;;;-3.13;69.85;98356.47;6249288;22;20402;-80
2021/12/02 12:16:43;;;;;;;2.75;2.55;;;;;;;-3.14;70.96;98348.88;6302803;22;20560;-81
2021/12/02 12:19:16;;;;;;;2.40;2.30;;;;;;;-3.19;71.72;98365.13;6273940;22;20477;-79
2021/12/02 12:21:47;;;;;;;2.70;2.50;;;;;;;-3.19;72.44;98380.44;6301669;22;20019;-79
2021/12/02 12:24:15;;;;;;;2.90;2.70;;;;;;;-3.23;73.62;98366.06;6299468;22;20022;-82
2021/12/02 12:26:44;;;;;;;3.08;2.88;;;;;;;-3.24;74.67;98364.38;6278356;22;20074;-80
2021/12/02 12:29:12;;;;;;;2.90;2.70;;;;;;;-3.27;75.18;98372.09;6300248;22;20015;-79
2021/12/02 12:31:50;;;;;;;2.72;2.35;;;;;;;-3.30;75.73;98368.78;6298583;22;20054;-80
2021/12/02 12:34:47;;;;;;;3.35;3.05;;;;;;;-3.37;77.00;98363.00;6246760;22;20023;-81
2021/12/02 12:37:23;;;;;;;3.10;2.90;;;;;;;-3.40;78.16;98357.13;6267027;22;20023;-79
2021/12/02 12:40:07;;;;;;;3.45;2.88;;;;;;;-3.50;79.55;98366.69;6299428;22;20022;-80
2021/12/02 12:42:36;;;;;;;3.20;3.00;;;;;;;-3.63;80.90;98347.47;6298459;22;20026;-81
2021/12/02 12:45:04;;;;;;;4.32;3.38;;;;;;;-3.59;81.85;98363.53;6246441;22;20069;-80
2021/12/02 12:47:42;;;;;;;5.80;4.15;;;;;;;-3.61;82.61;98366.13;6270477;22;20022;-81
2021/12/02 12:50:31;;;;;;;2.30;2.20;;;;;;;-3.66;83.29;98347.53;6299522;22;20023;-80
2021/12/02 12:53:07;;;;;;;5.38;3.92;;;;;;;-3.71;84.53;98347.66;6247272;22;20027;-80
2021/12/02 12:55:37;;;;;;;3.03;2.60;;;;;;;-3.73;85.42;98338.38;6245688;22;20062;-79
2021/12/02 12:58:07;;;;;;;2.72;2.53;;;;;;;-3.75;85.84;98330.75;6296724;22;20454;-79
2021/12/02 13:00:42;;;;;;;3.28;3.08;;;;;;;-3.76;85.78;98330.75;6295697;22;20019;-79
2021/12/02 13:03:11;;;;;;;3.95;3.55;;;;;;;-3.75;86.24;98320.53;6295308;22;20023;-79
2021/12/02 13:05:43;;;;;;;6.03;5.53;;;;;;;-3.77;86.81;98336.75;6300739;22;20062;-80
2021/12/02 13:08:22;;;;;;;3.92;3.22;;;;;;;-3.77;87.14;98318.91;6301855;22;20022;-79
2021/12/02 13:10:52;;;;;;;5.22;4.22;;;;;;;-3.78;87.21;98323.16;6271887;22;20019;-79
2021/12/02 13:13:32;;;;;;;4.85;4.03;;;;;;;-3.77;87.56;98331.66;6298565;22;20026;-79
2021/12/02 13:16:32;;;;;;;3.35;3.08;;;;;;;-3.77;88.31;98337.59;6272226;22;20098;-79
2021/12/02 13:19:00;;;;;;;3.03;2.83;;;;;;;-3.82;88.39;98325.81;6248204;22;20119;-80
2021/12/02 13:21:29;;;;;;;2.92;2.80;;;;;;;-3.78;88.74;98314.69;6223574;22;20114;-79
2021/12/02 13:23:56;;;;;;;4.85;3.10;;;;;;;-3.76;88.09;98315.47;6303084;22;20134;-79
2021/12/02 13:26:29;;;;;;;3.78;3.45;;;;;;;-3.72;88.14;98317.09;6305486;22;20023;-79
2021/12/02 13:29:01;;;;;;;4.40;3.28;;;;;;;-3.73;88.54;98307.78;6279982;22;20023;-79
2021/12/02 13:31:27;;;;;;;2.83;2.47;;;;;;;-3.73;88.50;98302.69;6307855;22;20062;-79
2021/12/02 13:33:58;;;;;;;1.95;1.85;;;;;;;-3.70;88.75;98312.81;6276936;22;20022;-80
2021/12/02 13:36:44;;;;;;;3.00;2.80;;;;;;;-3.70;89.20;98317.91;6305323;22;20045;-79
2021/12/02 13:39:17;;;;;;;2.63;2.47;;;;;;;-3.69;89.33;98294.91;6291796;22;20394;-79
2021/12/02 13:41:47;;;;;;;2.67;2.47;;;;;;;-3.72;89.04;98302.63;6264271;22;20029;-77
2021/12/02 13:44:21;;;;;;;6.20;2.45;;;;;;;-3.68;89.15;98303.41;6316880;22;20022;-80
2021/12/02 13:46:52;;;;;;;2.97;2.72;;;;;;;-3.71;89.49;98294.13;6291545;22;20078;-79
2021/12/02 13:49:24;;;;;;;3.25;3.03;;;;;;;-3.69;89.39;98309.38;6283357;22;20127;-80
2021/12/02 13:54:36;;;;;;;3.30;3.10;;;;;;;-3.66;88.93;98294.00;6304296;22;19914;-80
2021/12/02 13:57:34;;;;;;;3.22;2.92;;;;;;;-3.68;89.86;98303.41;6225780;22;20114;-80
2021/12/02 14:00:28;;;;;;;2.78;2.65;;;;;;;-3.70;89.75;98277.94;6253988;22;20026;-79
2021/12/02 14:03:05;;;;;;;3.47;3.20;;;;;;;-3.67;89.98;98281.31;6301894;22;20011;-80
2021/12/02 14:05:33;;;;;;;3.17;2.97;;;;;;;-3.68;89.52;98265.16;6275398;22;20015;-79
2021/12/02 14:08:00;;;;;;;3.85;3.65;;;;;;;-3.70;89.99;98266.91;6302633;22;20019;-79
2021/12/02 14:10:28;;;;;;;4.63;4.00;;;;;;;-3.71;89.53;98252.50;6274940;22;20030;-79
2021/12/02 14:13:02;;;;;;;3.50;3.20;;;;;;;-3.69;90.33;98264.31;6302456;22;20026;-79
2021/12/02 14:15:29;;;;;;;3.72;3.35;;;;;;;-3.69;90.41;98260.94;6276776;22;20015;-78
2021/12/02 14:18:19;;;;;;;3.35;3.13;;;;;;;-3.65;90.49;98239.59;6275149;22;20019;-80
2021/12/02 14:21:11;;;;;;;4.20;3.85;;;;;;;-3.70;90.02;98249.91;6275129;22;20015;-79
2021/12/02 14:23:44;;;;;;;2.80;2.63;;;;;;;-3.67;90.13;98249.00;6295930;22;20045;-79
2021/12/02 14:26:11;;;;;;;2.05;1.95;;;;;;;-3.65;90.27;98244.69;6274804;22;20069;-80
2021/12/02 14:28:44;;;;;;;3.00;2.80;;;;;;;-3.64;90.19;98250.63;6301231;22;20073;-79
2021/12/02 14:31:24;;;;;;;2.25;2.15;;;;;;;-3.64;90.25;98243.84;6301769;22;20038;-79
2021/12/02 14:33:52;;;;;;;3.47;3.28;;;;;;;-3.69;90.15;98235.44;6300666;22;20694;-78
2021/12/02 14:36:19;;;;;;;3.83;3.22;;;;;;;-3.63;90.35;98220.00;6301803;22;20150;-79
2021/12/02 14:39:09;;;;;;;3.35;3.13;;;;;;;-3.62;90.30;98244.63;6274730;22;20022;-79
2021/12/02 14:41:42;;;;;;;3.75;3.03;;;;;;;-3.63;90.32;98245.47;6263016;22;20410;-79
2021/12/02 14:44:10;;;;;;;3.03;2.83;;;;;;;-3.62;90.50;98236.97;6300934;22;20026;-79
2021/12/02 14:46:47;;;;;;;3.80;3.50;;;;;;;-3.61;89.83;98231.00;6247893;22;20153;-79
2021/12/02 14:49:14;;;;;;;3.20;3.00;;;;;;;-3.57;89.75;98242.81;6273413;22;20019;-79
2021/12/02 14:51:58;;;;;;;3.50;3.13;;;;;;;-3.49;89.00;98266.38;6299846;22;20026;-79
2021/12/02 14:54:30;;;;;;;5.72;5.13;;;;;;;-3.43;88.61;98258.59;6299870;22;20015;-79
2021/12/02 14:56:56;;;;;;;5.00;3.63;;;;;;;-3.41;88.21;98254.31;6300175;22;20145;-79
2021/12/02 14:59:26;;;;;;;3.15;2.95;;;;;;;-3.39;87.83;98254.25;6272867;22;20042;-79
2021/12/02 15:02:06;;;;;;;7.70;3.72;;;;;;;-3.33;87.23;98236.22;6272892;22;20031;-79
2021/12/02 15:04:35;;;;;;;3.30;3.10;;;;;;;-3.28;86.85;98230.16;6299645;22;20019;-79
2021/12/02 15:07:09;;;;;;;4.88;4.47;;;;;;;-3.16;85.87;98232.38;6272884;22;20488;-79
2021/12/02 15:09:37;;;;;;;4.53;3.78;;;;;;;-3.12;85.89;98239.97;6248817;22;20027;-79
2021/12/02 15:12:10;;;;;;;5.88;5.38;;;;;;;-3.11;85.97;98237.38;6276376;22;20011;-79
2021/12/02 15:14:44;;;;;;;4.40;4.00;;;;;;;-3.13;86.45;98226.34;6303852;22;20015;-80
2021/12/02 15:17:12;;;;;;;3.90;3.55;;;;;;;-3.21;86.50;98208.69;6276269;22;20015;-79
2021/12/02 15:19:46;;;;;;;3.30;3.10;;;;;;;-3.10;86.03;98222.88;6276402;22;20023;-79
2021/12/02 15:22:33;;;;;;;4.32;4.03;;;;;;;-2.98;86.06;98214.91;6277093;22;20021;-79
2021/12/02 15:25:17;;;;;;;3.60;3.33;;;;;;;-3.06;87.20;98222.78;6275753;22;20019;-79
2021/12/02 15:28:02;;;;;;;8.70;5.72;;;;;;;-3.16;87.98;98219.63;6303315;22;20465;-79
2021/12/02 15:30:37;;;;;;;5.82;4.22;;;;;;;-3.23;88.65;98218.09;6302878;22;20034;-79
2021/12/02 15:33:04;;;;;;;6.18;4.20;;;;;;;-3.23;88.76;98212.16;6276183;22;20015;-81
2021/12/02 15:35:32;;;;;;;3.58;3.28;;;;;;;-3.16;88.08;98209.41;6303510;22;20552;-80
2021/12/02 15:38:01;;;;;;;4.55;4.18;;;;;;;-3.10;88.13;98203.31;6303473;22;20513;-80
2021/12/02 15:40:29;;;;;;;5.45;4.63;;;;;;;-3.16;88.79;98214.53;6302826;22;20015;-79
2021/12/02 15:42:55;;;;;;;4.15;3.85;;;;;;;-3.18;88.74;98216.28;6275820;22;20038;-78
2021/12/02 15:45:22;;;;;;;4.78;4.35;;;;;;;-3.18;88.72;98206.09;6275925;22;20019;-80
2021/12/02 15:47:48;;;;;;;6.80;4.80;;;;;;;-3.16;88.97;98203.47;6275923;22;20439;-80
2021/12/02 15:50:56;;;;;;;5.65;4.57;;;;;;;-3.10;88.47;98205.03;6277419;22;20086;-78
2021/12/02 15:53:26;;;;;;;4.57;4.18;;;;;;;-3.21;88.68;98180.63;6251468;22;20103;-78
2021/12/02 15:55:53;;;;;;;3.13;2.92;;;;;;;-3.03;88.53;98188.66;6302965;22;20105;-77
2021/12/02 15:58:19;;;;;;;5.40;3.80;;;;;;;-3.01;88.35;98202.25;6303172;22;20482;-77
2021/12/02 16:00:50;;;;;;;5.43;3.80;;;;;;;-3.02;88.59;98195.47;6302266;22;20050;-78
2021/12/02 16:03:22;;;;;;;3.33;3.08;;;;;;;-2.99;88.73;98187.72;6301480;22;20368;-77
2021/12/02 16:13:32;;;;;;;8.43;6.65;;;;;;;-2.94;88.54;98181.59;6275792;22;20454;-77
2021/12/02 16:15:58;;;;;;;7.30;5.60;;;;;;;-2.87;88.60;98182.25;6302299;22;20085;-77
2021/12/02 16:18:25;;;;;;;5.03;4.50;;;;;;;-2.88;88.78;98183.97;6302734;22;20015;-77
2021/12/02 16:20:52;;;;;;;9.68;7.18;;;;;;;-2.85;88.85;98188.19;6274882;22;20547;-77
2021/12/02 16:23:17;;;;;;;7.18;6.47;;;;;;;-2.87;88.87;98180.53;6302914;22;20407;-77
2021/12/02 16:25:43;;;;;;;3.67;3.25;;;;;;;-2.88;88.95;98168.66;6301365;22;20027;-77
2021/12/02 16:28:09;;;;;;;2.72;2.63;;;;;;;-2.84;88.99;98179.63;6302450;22;20030;-77
2021/12/02 16:30:37;;;;;;;4.57;4.18;;;;;;;-2.81;89.14;98184.63;6302331;22;20406;-80
2021/12/02 16:33:04;;;;;;;5.07;4.68;;;;;;;-2.78;88.69;98176.91;6276509;22;20038;-81
2021/12/02 16:35:31;;;;;;;4.10;3.50;;;;;;;-2.75;88.74;98184.47;6275508;22;20019;-81
2021/12/02 16:37:58;;;;;;;3.03;2.83;;;;;;;-2.71;88.48;98175.84;6303507;22;20019;-81
2021/12/02 16:40:27;;;;;;;3.75;3.45;;;;;;;-2.69;88.37;98181.75;6303804;22;20053;-82
2021/12/02 16:42:58;;;;;;;3.33;3.13;;;;;;;-2.68;89.02;98174.03;6310460;22;20025;-79
2021/12/02 16:45:38;;;;;;;4.35;4.03;;;;;;;-2.68;89.22;98183.41;6254163;22;20102;-81
2021/12/02 16:48:13;;;;;;;3.38;3.17;;;;;;;-2.68;89.45;98173.19;6256505;22;20018;-80
2021/12/02 16:58:35;;;;;;;3.20;3.00;;;;;;;-2.81;90.95;98154.00;6060157;23;20482;-82
2021/12/02 17:01:04;;;;;;;3.30;2.83;;;;;;;-2.72;91.07;98172.47;6157715;23;20055;-82
2021/12/02 17:03:30;;;;;;;4.88;4.47;;;;;;;-2.98;91.87;98129.00;6233207;23;20064;-80
2021/12/02 17:05:56;;;;;;;7.47;6.47;;;;;;;-2.67;91.94;98177.41;6286675;22;20087;-80
2021/12/02 17:08:22;;;;;;;5.55;5.05;;;;;;;-2.67;91.75;98170.59;6251875;22;20370;-82
2021/12/02 17:10:54;;;;;;;6.03;4.07;;;;;;;-2.64;91.76;98167.13;6305344;22;20023;-78
2021/12/02 17:13:23;;;;;;;3.47;3.22;;;;;;;-2.60;91.59;98170.41;6304631;22;20021;-80
2021/12/02 17:15:57;;;;;;;6.65;5.97;;;;;;;-2.57;91.94;98162.66;6277719;22;20150;-80
2021/12/02 17:18:26;;;;;;;4.97;4.57;;;;;;;-2.53;91.38;98159.16;6307182;22;20019;-81
2021/12/02 17:21:19;;;;;;;7.38;6.68;;;;;;;-2.50;91.68;98165.00;6305779;22;20074;-80
2021/12/02 17:23:45;;;;;;;5.95;5.45;;;;;;;-2.50;91.70;98159.91;6273357;22;20022;-80
2021/12/02 17:26:14;;;;;;;5.80;5.30;;;;;;;-2.64;91.38;98123.72;6275546;22;20051;-81
2021/12/02 17:28:45;;;;;;;4.00;3.70;;;;;;;-2.47;91.55;98143.63;6271395;22;20026;-80
2021/12/02 17:31:17;;;;;;;7.70;5.97;;;;;;;-2.49;91.74;98141.16;6300795;22;20069;-78
2021/12/02 17:33:43;;;;;;;7.53;6.82;;;;;;;-2.45;91.87;98147.81;6251557;22;20098;-83
2021/12/02 17:36:14;;;;;;;6.20;4.75;;;;;;;-2.51;91.91;98148.00;6288211;22;20664;-85
2021/12/02 17:38:41;;;;;;;4.95;4.45;;;;;;;-2.45;91.77;98154.63;6263116;22;20046;-83
2021/12/02 17:41:07;;;;;;;5.93;5.43;;;;;;;-2.46;91.94;98146.16;6286520;22;20117;-82
2021/12/02 17:43:35;;;;;;;4.25;3.67;;;;;;;-2.57;91.96;98137.97;6311235;22;20019;-82
2021/12/02 17:46:03;;;;;;;6.93;4.93;;;;;;;-2.43;92.18;98158.00;6308991;22;20465;-82
2021/12/02 17:48:30;;;;;;;6.22;5.72;;;;;;;-2.47;92.03;98152.13;6284589;22;20019;-78